Time;durP1;ratioP1;P1;durP2;ratioP2;P2;SDS_P1;SDS_P2;PMS_P1;PMS_P2;Temp;Humidity;BMP_temperature;BMP_pressure;BME280_temperature;BME280_humidity;BME280_pressure;Samples;Min_cycle;Max_cycle;Signal;HPM_P1;HPM_P2
2023/01/20 00:00:04;;;;;;;27.80;15.50;;;;;;;0.90;82.94;99199.46;209524;1291;139990;-61
2023/01/20 00:05:09;;;;;;;33.40;16.40;;;;;;;0.89;82.80;99205.59;208809;1292;142543;-65
2023/01/20 00:10:11;;;;;;;35.10;17.80;;;;;;;0.91;82.59;99211.70;209374;1285;140512;-68
2023/01/20 00:15:15;;;;;;;27.10;16.20;;;;;;;0.94;82.53;99215.91;208078;1285;142296;-64
2023/01/20 00:20:18;;;;;;;30.30;16.60;;;;;;;0.93;82.67;99216.42;209298;1278;139301;-67
2023/01/20 00:25:21;;;;;;;29.40;16.20;;;;;;;0.89;82.61;99213.10;207797;1294;139176;-67
2023/01/20 00:30:25;;;;;;;27.70;16.00;;;;;;;0.81;82.26;99210.90;208786;1294;140156;-67
2023/01/20 00:35:29;;;;;;;28.00;14.80;;;;;;;0.71;82.23;99211.91;208200;1300;140479;-63
2023/01/20 00:40:33;;;;;;;30.40;15.30;;;;;;;0.66;82.12;99216.23;208284;1285;140926;-64
2023/01/20 00:45:36;;;;;;;27.50;16.40;;;;;;;0.61;82.39;99227.82;207963;1292;140495;-65
2023/01/20 00:50:39;;;;;;;28.60;15.00;;;;;;;0.51;82.03;99243.51;209168;1301;140007;-62
2023/01/20 00:55:43;;;;;;;30.20;17.30;;;;;;;0.38;82.18;99260.27;208935;1286;140023;-64
2023/01/20 01:00:49;;;;;;;33.80;16.40;;;;;;;0.39;82.28;99259.83;209067;1285;140002;-67
2023/01/20 01:06:10;;;;;;;28.50;17.50;;;;;;;0.36;82.14;99264.77;208027;1294;140744;-68
2023/01/20 01:11:13;;;;;;;30.00;16.80;;;;;;;0.31;82.15;99264.96;208896;1285;140399;-68
2023/01/20 01:16:16;;;;;;;37.60;18.00;;;;;;;0.23;82.20;99261.88;209260;1282;139468;-67
2023/01/20 01:21:19;;;;;;;31.00;20.00;;;;;;;0.18;82.37;99258.16;208998;1295;140335;-63
2023/01/20 01:26:21;;;;;;;33.40;16.60;;;;;;;0.12;82.12;99260.94;209442;1295;140410;-62
2023/01/20 01:31:24;;;;;;;34.40;17.00;;;;;;;0.10;81.95;99262.52;210605;1292;140243;-67
2023/01/20 01:36:27;;;;;;;32.20;18.10;;;;;;;0.10;82.09;99269.24;210628;1290;139793;-65
2023/01/20 01:41:30;;;;;;;29.10;16.20;;;;;;;0.10;82.00;99274.30;210713;1297;140269;-66
2023/01/20 01:46:33;;;;;;;32.10;17.40;;;;;;;0.05;81.95;99275.02;209818;1285;141036;-68
2023/01/20 01:51:46;;;;;;;32.30;19.10;;;;;;;-0.01;81.70;99276.07;209508;1285;139896;-65
2023/01/20 01:56:50;;;;;;;31.60;16.50;;;;;;;-0.05;81.86;99273.43;209027;1298;139824;-65
2023/01/20 02:01:53;;;;;;;31.90;17.90;;;;;;;-0.04;81.87;99268.60;209626;1298;140499;-62
2023/01/20 02:07:02;;;;;;;32.00;18.10;;;;;;;-0.03;82.29;99261.59;209446;1295;140606;-63
2023/01/20 02:12:12;;;;;;;36.40;20.00;;;;;;;-0.06;82.23;99263.42;209105;1292;140479;-66
2023/01/20 02:17:34;;;;;;;40.70;20.50;;;;;;;-0.09;82.34;99262.48;209039;1285;141821;-64
2023/01/20 02:23:21;;;;;;;30.50;16.30;;;;;;;-0.14;82.21;99262.85;208524;1301;142260;-63
2023/01/20 02:28:36;;;;;;;35.60;19.50;;;;;;;-0.20;81.82;99269.33;207315;1301;222844;-64
2023/01/20 02:33:53;;;;;;;28.00;17.30;;;;;;;-0.27;81.94;99275.23;208531;1291;140243;-63
2023/01/20 02:39:01;;;;;;;37.80;18.90;;;;;;;-0.49;81.81;99282.29;209237;1300;139763;-63
2023/01/20 02:44:12;;;;;;;44.80;20.00;;;;;;;-0.63;82.22;99293.88;209351;1294;140329;-63
2023/01/20 02:49:19;;;;;;;42.30;22.00;;;;;;;-0.67;82.05;99302.42;208704;1293;141017;-63
2023/01/20 02:54:34;;;;;;;39.10;18.00;;;;;;;-0.75;82.08;99316.36;209234;1301;140885;-62
2023/01/20 02:59:41;;;;;;;30.80;17.70;;;;;;;-0.78;82.45;99315.78;208377;1295;140368;-63
2023/01/20 03:05:26;;;;;;;37.70;20.20;;;;;;;-0.79;82.42;99324.42;208563;1295;140299;-64
2023/01/20 03:10:34;;;;;;;28.20;15.90;;;;;;;-0.82;82.27;99324.34;208733;1295;141231;-63
2023/01/20 03:16:06;;;;;;;33.50;18.80;;;;;;;-0.85;82.65;99328.87;209321;1284;139976;-64
2023/01/20 03:21:11;;;;;;;39.90;20.70;;;;;;;-0.91;82.41;99334.33;209299;1294;140307;-63
2023/01/20 03:26:17;;;;;;;40.10;17.90;;;;;;;-0.94;82.53;99339.98;208394;1278;139837;-64
2023/01/20 03:31:25;;;;;;;44.40;21.30;;;;;;;-0.99;82.19;99336.34;210225;1291;140855;-63
2023/01/20 03:36:30;;;;;;;41.80;24.70;;;;;;;-1.03;82.55;99330.04;210686;1287;211968;-63
2023/01/20 03:41:55;;;;;;;43.90;20.90;;;;;;;-1.08;82.56;99331.36;210744;1285;139885;-65
2023/01/20 03:47:24;;;;;;;39.00;19.70;;;;;;;-1.20;82.09;99341.45;209322;1294;141036;-64
2023/01/20 03:52:35;;;;;;;38.80;19.60;;;;;;;-1.27;82.34;99352.86;209017;1286;139735;-64
2023/01/20 03:57:54;;;;;;;32.50;19.10;;;;;;;-1.30;82.30;99356.00;210137;1298;140995;-64
2023/01/20 04:03:01;;;;;;;38.80;21.40;;;;;;;-1.29;82.64;99357.44;209557;1301;219410;-65
2023/01/20 04:08:08;;;;;;;34.70;18.20;;;;;;;-1.28;82.72;99360.88;208073;1286;141173;-64
2023/01/20 04:13:17;;;;;;;42.20;23.30;;;;;;;-1.39;82.47;99379.45;208767;1300;140367;-63
2023/01/20 04:18:28;;;;;;;44.20;19.90;;;;;;;-1.51;82.35;99390.67;208832;1286;142721;-63
2023/01/20 04:23:32;;;;;;;40.30;20.40;;;;;;;-1.55;82.21;99395.27;208326;1291;142183;-61
2023/01/20 04:28:37;;;;;;;39.30;19.20;;;;;;;-1.56;82.56;99395.11;208153;1285;141027;-61
2023/01/20 04:33:40;;;;;;;40.80;21.10;;;;;;;-1.55;82.87;99406.12;208877;1286;141218;-62
2023/01/20 04:38:43;;;;;;;34.40;19.90;;;;;;;-1.64;82.70;99422.77;208287;1292;141966;-62
2023/01/20 04:43:46;;;;;;;41.60;19.30;;;;;;;-1.73;82.65;99437.48;208410;1278;144317;-62
2023/01/20 04:48:50;;;;;;;38.30;20.20;;;;;;;-1.70;82.84;99439.27;207934;1291;140540;-62
2023/01/20 04:53:57;;;;;;;44.90;22.50;;;;;;;-1.66;83.34;99430.33;209151;1286;140817;-62
2023/01/20 04:59:00;;;;;;;52.80;23.00;;;;;;;-1.64;83.45;99427.65;209158;1295;140551;-63
2023/01/20 05:04:06;;;;;;;60.30;24.00;;;;;;;-1.60;83.46;99429.48;208686;1291;139954;-64
2023/01/20 05:09:14;;;;;;;54.90;25.20;;;;;;;-1.56;83.32;99435.14;209666;1291;139927;-63
2023/01/20 05:14:19;;;;;;;50.00;21.50;;;;;;;-1.62;82.91;99438.60;208822;1289;139821;-62
2023/01/20 05:19:25;;;;;;;47.10;23.50;;;;;;;-1.76;82.73;99451.52;207908;1285;142888;-62
2023/01/20 05:24:29;;;;;;;53.10;23.90;;;;;;;-1.85;83.07;99469.77;210518;1287;141915;-62
2023/01/20 05:29:32;;;;;;;43.10;20.30;;;;;;;-1.87;83.06;99485.13;210544;1285;140494;-65
2023/01/20 05:34:35;;;;;;;36.50;21.50;;;;;;;-1.83;82.97;99501.21;210749;1294;141383;-62
2023/01/20 05:39:38;;;;;;;43.10;23.60;;;;;;;-1.82;82.79;99510.16;210941;1294;141652;-62
2023/01/20 05:44:42;;;;;;;50.90;24.70;;;;;;;-1.83;83.00;99517.73;210342;1292;139914;-63
2023/01/20 05:49:45;;;;;;;47.40;27.10;;;;;;;-1.84;83.02;99515.83;209098;1290;140215;-62
2023/01/20 05:54:48;;;;;;;49.60;24.90;;;;;;;-1.81;83.19;99523.13;209288;1292;141480;-62
2023/01/20 05:59:54;;;;;;;49.20;26.90;;;;;;;-1.82;82.89;99534.20;207980;1286;141499;-61
2023/01/20 06:05:02;;;;;;;50.90;27.70;;;;;;;-1.85;83.26;99536.15;209032;1291;140500;-63
2023/01/20 06:10:08;;;;;;;52.20;27.20;;;;;;;-1.84;83.20;99539.82;207854;1292;141707;-63
2023/01/20 06:15:11;;;;;;;63.90;34.40;;;;;;;-1.89;83.31;99535.15;209144;1292;141204;-63
2023/01/20 06:20:15;;;;;;;63.00;29.10;;;;;;;-1.96;82.87;99519.02;208921;1284;140399;-62
2023/01/20 06:25:19;;;;;;;53.00;27.60;;;;;;;-1.99;83.11;99506.09;208602;1292;140755;-65
2023/01/20 06:30:22;;;;;;;58.20;29.20;;;;;;;-2.01;83.11;99503.51;208353;1278;141199;-62
2023/01/20 06:35:26;;;;;;;64.90;32.90;;;;;;;-2.08;83.20;99521.98;208398;1291;141221;-62
2023/01/20 06:40:30;;;;;;;66.50;31.00;;;;;;;-2.15;83.35;99532.10;209317;1286;140341;-65
2023/01/20 06:45:33;;;;;;;66.20;33.20;;;;;;;-2.13;83.40;99546.03;209349;1286;139787;-65
2023/01/20 06:50:37;;;;;;;58.10;33.30;;;;;;;-2.08;83.46;99539.95;208660;1285;140741;-63
2023/01/20 06:55:40;;;;;;;76.10;32.40;;;;;;;-2.05;83.38;99539.44;209748;1292;142393;-62
2023/01/20 07:00:43;;;;;;;67.60;33.60;;;;;;;-2.13;82.80;99555.48;207792;1285;236231;-63
2023/01/20 07:06:04;;;;;;;67.70;33.00;;;;;;;-2.27;82.86;99573.11;209073;1292;141213;-63
2023/01/20 07:11:07;;;;;;;68.60;31.80;;;;;;;-2.29;83.28;99583.24;208532;1294;140508;-63
2023/01/20 07:16:10;;;;;;;65.30;34.40;;;;;;;-2.21;83.16;99580.95;210258;1294;143793;-63
2023/01/20 07:21:19;;;;;;;61.60;30.20;;;;;;;-2.07;83.33;99582.81;210639;1295;142981;-63
2023/01/20 07:26:25;;;;;;;74.50;33.30;;;;;;;-2.05;82.84;99607.86;208837;1294;143124;-64
2023/01/20 07:31:30;;;;;;;77.40;34.10;;;;;;;-2.00;82.91;99614.13;210525;1298;141479;-64
2023/01/20 07:36:33;;;;;;;69.20;34.70;;;;;;;-1.92;82.67;99624.61;209333;1286;141940;-60
2023/01/20 07:41:38;;;;;;;75.60;38.00;;;;;;;-1.86;83.02;99620.39;210306;1292;143047;-62
2023/01/20 07:46:42;;;;;;;94.70;41.90;;;;;;;-1.67;83.46;99622.44;209376;1300;141039;-63
2023/01/20 07:51:46;;;;;;;79.60;35.20;;;;;;;-1.49;83.62;99635.33;207857;1292;141484;-62
2023/01/20 07:56:49;;;;;;;77.40;41.10;;;;;;;-1.35;83.44;99641.70;209502;1281;140237;-61
2023/01/20 08:01:52;;;;;;;85.80;45.40;;;;;;;-1.23;83.44;99645.48;209392;1291;140971;-63
2023/01/20 08:06:55;;;;;;;68.50;35.60;;;;;;;-1.15;83.45;99649.37;209033;1285;140325;-63
2023/01/20 08:11:58;;;;;;;75.50;33.90;;;;;;;-1.10;83.24;99661.94;208744;1291;139742;-64
2023/01/20 08:17:01;;;;;;;65.40;32.30;;;;;;;-1.01;83.21;99674.91;208505;1285;140506;-64
2023/01/20 08:22:05;;;;;;;74.70;37.00;;;;;;;-1.07;82.86;99674.77;207663;1279;140198;-63
2023/01/20 08:27:08;;;;;;;69.50;35.50;;;;;;;-1.10;83.02;99682.47;208466;1285;140411;-62
2023/01/20 08:32:10;;;;;;;78.10;34.40;;;;;;;-1.06;83.13;99686.21;209669;1279;140224;-69
2023/01/20 08:37:13;;;;;;;73.00;35.80;;;;;;;-0.97;83.03;99688.78;207837;1284;355524;-65
2023/01/20 08:42:15;;;;;;;73.50;39.70;;;;;;;-0.91;82.90;99687.30;209311;1291;140924;-61
2023/01/20 08:47:18;;;;;;;62.40;31.90;;;;;;;-0.85;83.36;99684.50;209517;1292;139734;-64
2023/01/20 08:52:20;;;;;;;80.80;33.50;;;;;;;-0.79;83.40;99689.27;208300;1279;141090;-66
2023/01/20 08:57:25;;;;;;;69.00;35.10;;;;;;;-0.59;83.59;99699.20;207917;1285;141755;-64
2023/01/20 09:02:27;;;;;;;51.80;24.90;;;;;;;-0.35;83.83;99701.35;209432;1294;141069;-65
2023/01/20 09:07:30;;;;;;;69.80;34.90;;;;;;;-0.34;83.07;99702.91;208695;1286;140223;-64
2023/01/20 09:12:33;;;;;;;76.30;38.30;;;;;;;-0.20;83.05;99707.34;210490;1279;141987;-66
2023/01/20 09:17:36;;;;;;;61.50;35.40;;;;;;;-0.03;83.11;99712.14;210312;1294;140397;-67
2023/01/20 09:22:39;;;;;;;64.70;31.70;;;;;;;0.10;83.36;99716.88;210577;1293;140244;-66
2023/01/20 09:27:42;;;;;;;47.60;27.50;;;;;;;0.21;82.88;99728.23;209255;1294;140120;-65
2023/01/20 09:32:45;;;;;;;53.70;30.30;;;;;;;0.32;82.67;99726.77;209086;1292;140280;-66
2023/01/20 09:43:55;;;;;;;61.80;32.50;;;;;;;0.64;82.89;99720.95;209301;1292;140437;-65
2023/01/20 09:55:09;;;;;;;57.40;25.20;;;;;;;0.95;82.75;99725.08;208269;1292;140040;-64
2023/01/20 10:00:17;;;;;;;54.30;26.70;;;;;;;1.12;82.61;99725.80;207729;1292;140780;-64
2023/01/20 10:05:24;;;;;;;47.50;26.20;;;;;;;1.20;82.32;99726.68;208446;1279;139724;-65
2023/01/20 10:10:31;;;;;;;48.20;24.40;;;;;;;1.22;82.37;99728.59;208151;1284;139948;-64
2023/01/20 10:15:42;;;;;;;41.50;25.10;;;;;;;1.29;82.33;99735.59;209029;1285;140793;-63
2023/01/20 10:21:01;;;;;;;39.50;21.70;;;;;;;1.39;82.00;99736.73;208465;1285;139760;-64
2023/01/20 10:26:17;;;;;;;38.10;20.50;;;;;;;1.54;81.34;99731.66;208623;1278;141360;-64
2023/01/20 10:31:27;;;;;;;40.90;22.30;;;;;;;1.64;81.11;99733.28;209205;1287;139970;-65
2023/01/20 10:36:33;;;;;;;45.40;22.70;;;;;;;1.74;81.24;99733.80;207690;1284;139559;-66
2023/01/20 10:41:51;;;;;;;32.90;18.60;;;;;;;1.78;80.67;99733.80;208912;1285;140995;-66
2023/01/20 10:47:03;;;;;;;56.20;31.40;;;;;;;1.93;80.59;99735.06;208725;1294;140655;-67
2023/01/20 10:52:22;;;;;;;38.60;20.20;;;;;;;2.17;80.63;99733.40;207655;1292;140804;-66
2023/01/20 10:57:27;;;;;;;31.10;17.60;;;;;;;2.40;80.55;99731.59;207667;1286;233824;-69
2023/01/20 11:02:34;;;;;;;24.70;15.60;;;;;;;2.47;79.92;99728.83;210394;1295;140019;-69
2023/01/20 11:07:40;;;;;;;17.20;12.80;;;;;;;2.30;79.31;99721.79;210407;1294;141775;-64
2023/01/20 11:12:45;;;;;;;26.70;13.20;;;;;;;2.19;79.04;99716.02;210627;1295;140568;-66
2023/01/20 11:18:12;;;;;;;18.70;12.60;;;;;;;2.20;79.03;99717.39;210399;1291;143278;-67
2023/01/20 11:23:36;;;;;;;19.50;11.70;;;;;;;2.18;78.71;99716.81;210609;1295;140047;-65
2023/01/20 11:28:52;;;;;;;23.70;13.10;;;;;;;2.25;78.71;99718.95;209658;1284;139695;-70
2023/01/20 11:33:59;;;;;;;29.90;17.90;;;;;;;2.40;78.36;99727.95;209013;1285;141006;-64
2023/01/20 11:39:07;;;;;;;34.60;19.80;;;;;;;2.43;78.42;99728.98;209412;1294;140151;-67
2023/01/20 11:44:19;;;;;;;31.40;16.30;;;;;;;2.37;78.49;99736.09;207991;1286;140296;-65
2023/01/20 11:49:23;;;;;;;39.20;22.60;;;;;;;2.21;78.03;99746.23;209833;1287;139716;-65
2023/01/20 11:54:28;;;;;;;32.70;20.30;;;;;;;2.12;78.15;99751.35;209038;1284;140746;-66
2023/01/20 11:59:36;;;;;;;37.20;17.60;;;;;;;2.10;78.19;99749.66;208827;1286;140439;-65
2023/01/20 12:04:56;;;;;;;36.10;20.60;;;;;;;2.07;77.74;99750.84;208112;1289;140682;-66
2023/01/20 12:10:22;;;;;;;26.20;16.30;;;;;;;1.97;77.63;99756.74;208586;1285;142443;-64
2023/01/20 12:15:39;;;;;;;36.90;20.00;;;;;;;1.91;77.51;99761.52;208950;1294;139633;-65
2023/01/20 12:20:48;;;;;;;38.10;20.90;;;;;;;1.96;77.47;99769.90;209201;1295;140544;-63
2023/01/20 12:26:08;;;;;;;36.20;18.30;;;;;;;2.06;77.74;99768.05;208735;1284;140085;-62
2023/01/20 12:31:18;;;;;;;46.00;25.20;;;;;;;1.97;77.26;99766.45;209381;1292;140035;-64
2023/01/20 12:36:54;;;;;;;45.90;26.10;;;;;;;1.89;77.13;99757.70;208523;1292;139918;-61
2023/01/20 12:42:09;;;;;;;52.00;25.20;;;;;;;1.83;76.91;99756.76;208335;1298;140068;-63
2023/01/20 12:47:13;;;;;;;45.90;23.60;;;;;;;1.72;77.55;99759.92;209757;1287;139851;-62
2023/01/20 12:52:47;;;;;;;33.10;20.60;;;;;;;1.69;77.44;99765.43;208953;1294;139822;-65
2023/01/20 12:57:59;;;;;;;39.30;23.20;;;;;;;1.78;77.53;99770.95;210332;1285;142075;-67
2023/01/20 13:03:35;;;;;;;46.60;25.90;;;;;;;1.85;77.66;99770.05;210681;1293;140305;-62
2023/01/20 13:09:03;;;;;;;40.50;24.90;;;;;;;1.79;77.60;99769.47;210539;1295;244688;-69
2023/01/20 13:14:16;;;;;;;40.70;23.50;;;;;;;1.73;77.54;99772.09;210527;1294;141306;-62
2023/01/20 13:19:28;;;;;;;46.80;26.70;;;;;;;1.79;77.56;99781.93;210525;1295;140947;-69
2023/01/20 13:24:33;;;;;;;53.40;27.70;;;;;;;1.61;77.19;99782.91;210543;1282;140100;-66
2023/01/20 13:29:52;;;;;;;57.40;27.90;;;;;;;1.33;77.23;99789.52;210205;1289;142279;-65
2023/01/20 13:34:57;;;;;;;55.10;26.70;;;;;;;1.04;77.33;99803.18;209067;1292;139813;-65
2023/01/20 13:40:03;;;;;;;50.30;22.40;;;;;;;0.91;77.63;99802.95;208702;1286;142068;-62
2023/01/20 13:45:12;;;;;;;54.50;24.00;;;;;;;0.67;77.21;99799.19;208933;1293;139287;-62
2023/01/20 13:50:27;;;;;;;41.60;18.30;;;;;;;0.40;77.86;99806.20;208775;1278;141189;-62
2023/01/20 13:55:42;;;;;;;54.70;20.80;;;;;;;0.22;78.22;99808.84;208123;1292;139821;-63
2023/01/20 14:00:49;;;;;;;46.20;21.00;;;;;;;0.18;78.36;99809.95;208533;1287;140783;-66
2023/01/20 14:06:00;;;;;;;47.10;22.70;;;;;;;0.16;78.62;99814.90;208422;1284;145957;-65
2023/01/20 14:11:13;;;;;;;45.00;20.50;;;;;;;0.11;78.95;99822.67;208184;1284;140788;-63
2023/01/20 14:16:24;;;;;;;44.30;17.40;;;;;;;-0.03;78.97;99829.40;208630;1286;139432;-64
2023/01/20 14:21:38;;;;;;;47.20;18.60;;;;;;;-0.11;79.17;99843.72;209030;1291;139929;-65
2023/01/20 14:26:41;;;;;;;40.50;20.80;;;;;;;-0.18;79.39;99856.84;208270;1292;140297;-67
2023/01/20 14:31:44;;;;;;;44.50;20.60;;;;;;;-0.24;79.42;99859.91;208844;1286;141399;-64
2023/01/20 14:36:49;;;;;;;43.50;23.50;;;;;;;-0.36;79.60;99861.51;210193;1284;141419;-67
2023/01/20 14:42:02;;;;;;;48.70;18.90;;;;;;;-0.40;79.73;99871.39;209300;1292;140430;-66
2023/01/20 14:47:07;;;;;;;45.10;19.70;;;;;;;-0.33;80.21;99890.23;210061;1286;141160;-63
2023/01/20 14:52:20;;;;;;;49.40;21.90;;;;;;;-0.35;80.16;99888.85;210283;1299;140406;-64
2023/01/20 14:57:27;;;;;;;46.40;22.10;;;;;;;-0.40;79.92;99892.34;208117;1285;140609;-63
2023/01/20 15:02:34;;;;;;;51.80;21.10;;;;;;;-0.40;80.28;99896.70;210326;1289;140941;-62
2023/01/20 15:07:38;;;;;;;51.90;24.70;;;;;;;-0.38;80.21;99902.20;210429;1293;142359;-67
2023/01/20 15:12:46;;;;;;;57.60;25.40;;;;;;;-0.38;80.62;99913.36;210709;1285;140486;-63
2023/01/20 15:18:08;;;;;;;48.80;22.60;;;;;;;-0.45;80.80;99920.41;210534;1293;150837;-68
2023/01/20 15:23:17;;;;;;;54.00;23.50;;;;;;;-0.44;80.98;99929.45;210080;1284;140610;-64
2023/01/20 15:28:28;;;;;;;52.50;21.20;;;;;;;-0.38;80.70;99930.39;209281;1279;141896;-62
2023/01/20 15:33:31;;;;;;;56.80;26.20;;;;;;;-0.34;80.89;99938.19;209781;1283;141193;-65
2023/01/20 15:38:33;;;;;;;68.60;27.60;;;;;;;-0.33;81.33;99938.55;208203;1287;139322;-66
2023/01/20 15:43:36;;;;;;;57.70;27.80;;;;;;;-0.36;81.49;99942.02;209670;1292;140906;-67
2023/01/20 15:48:40;;;;;;;62.10;24.70;;;;;;;-0.37;81.51;99951.90;209025;1292;141027;-68
2023/01/20 15:53:43;;;;;;;60.90;26.50;;;;;;;-0.35;81.49;99961.96;208660;1285;141036;-66
2023/01/20 15:58:48;;;;;;;66.20;30.10;;;;;;;-0.31;81.59;99958.79;207864;1285;141164;-67
2023/01/20 16:03:53;;;;;;;57.00;25.90;;;;;;;-0.34;81.46;99954.08;209143;1295;140241;-66
2023/01/20 16:09:00;;;;;;;56.60;24.80;;;;;;;-0.41;81.89;99955.13;208892;1286;139970;-66
2023/01/20 16:14:05;;;;;;;55.30;25.40;;;;;;;-0.45;81.87;99961.32;208338;1292;141424;-65
2023/01/20 16:19:12;;;;;;;60.00;27.20;;;;;;;-0.41;81.62;99965.54;208781;1292;141400;-66
2023/01/20 16:24:15;;;;;;;67.30;25.40;;;;;;;-0.35;81.84;99958.13;208951;1292;141779;-64
2023/01/20 16:29:18;;;;;;;68.00;27.00;;;;;;;-0.38;82.12;99960.87;209301;1291;140189;-63
2023/01/20 16:34:20;;;;;;;56.70;24.60;;;;;;;-0.41;82.07;99958.30;209159;1291;140560;-64
2023/01/20 16:39:23;;;;;;;68.20;28.70;;;;;;;-0.43;82.16;99951.16;208263;1285;140764;-68
2023/01/20 16:44:28;;;;;;;71.50;29.40;;;;;;;-0.39;82.22;99945.77;208447;1292;141677;-67
2023/01/20 16:49:30;;;;;;;67.00;31.80;;;;;;;-0.36;82.68;99935.41;207913;1292;141579;-65
2023/01/20 16:54:33;;;;;;;64.00;30.20;;;;;;;-0.39;82.56;99929.07;210609;1286;140744;-68
2023/01/20 16:59:35;;;;;;;82.10;31.70;;;;;;;-0.44;82.60;99933.08;210426;1291;140570;-66
2023/01/20 17:04:37;;;;;;;77.10;30.20;;;;;;;-0.42;82.59;99932.73;210410;1295;141208;-66
2023/01/20 17:09:41;;;;;;;76.60;30.40;;;;;;;-0.36;82.58;99934.33;210611;1295;141384;-66
2023/01/20 17:14:44;;;;;;;65.10;30.30;;;;;;;-0.36;82.71;99942.21;209548;1291;140016;-67
2023/01/20 17:19:47;;;;;;;68.70;32.00;;;;;;;-0.38;82.61;99947.80;209218;1292;141707;-67
2023/01/20 17:24:52;;;;;;;79.00;36.30;;;;;;;-0.37;82.59;99955.73;210237;1292;142092;-62
2023/01/20 17:29:54;;;;;;;82.30;33.90;;;;;;;-0.38;82.73;99960.60;209402;1292;141950;-66
2023/01/20 17:34:57;;;;;;;65.60;28.50;;;;;;;-0.40;82.79;99967.44;209136;1284;140343;-66
2023/01/20 17:40:00;;;;;;;77.40;30.20;;;;;;;-0.41;82.98;99975.88;209176;1285;142919;-64
2023/01/20 17:45:04;;;;;;;72.80;30.50;;;;;;;-0.35;83.20;99977.91;208803;1292;140884;-66
2023/01/20 17:50:07;;;;;;;75.70;31.40;;;;;;;-0.31;82.96;99982.95;208271;1288;140647;-62
2023/01/20 17:55:10;;;;;;;57.00;27.20;;;;;;;-0.31;82.99;99991.82;209363;1292;140966;-64
2023/01/20 18:00:16;;;;;;;68.50;33.30;;;;;;;-0.33;83.74;100001.85;208519;1282;141590;-66
2023/01/20 18:05:19;;;;;;;64.50;29.50;;;;;;;-0.32;83.45;100007.24;208828;1284;141883;-65
2023/01/20 18:10:22;;;;;;;71.30;33.40;;;;;;;-0.27;83.30;100012.22;208081;1300;141175;-67
2023/01/20 18:15:25;;;;;;;56.90;29.50;;;;;;;-0.28;83.33;100019.13;208598;1292;140621;-66
2023/01/20 18:20:29;;;;;;;53.70;30.40;;;;;;;-0.36;83.36;100032.64;208397;1286;141743;-66
2023/01/20 18:25:34;;;;;;;58.70;29.90;;;;;;;-0.41;83.48;100035.53;209078;1286;141251;-68
2023/01/20 18:30:38;;;;;;;58.30;28.20;;;;;;;-0.41;83.49;100041.71;210399;1281;140504;-66
2023/01/20 18:35:41;;;;;;;56.20;26.80;;;;;;;-0.37;83.62;100038.16;208787;1291;145694;-70
2023/01/20 18:40:46;;;;;;;51.10;25.70;;;;;;;-0.36;83.44;100041.19;209446;1285;141882;-69
2023/01/20 18:45:52;;;;;;;47.00;25.60;;;;;;;-0.37;83.74;100033.81;208511;1286;141795;-67
2023/01/20 18:50:59;;;;;;;51.00;23.80;;;;;;;-0.36;83.62;100033.16;210518;1299;141464;-64
2023/01/20 18:56:07;;;;;;;46.20;20.00;;;;;;;-0.33;83.41;100030.30;210503;1295;140686;-69
2023/01/20 19:01:14;;;;;;;49.70;22.20;;;;;;;-0.34;83.80;100030.89;210020;1295;141624;-65
2023/01/20 19:06:38;;;;;;;49.50;25.30;;;;;;;-0.32;83.88;100038.19;210677;1298;140597;-66
2023/01/20 19:11:41;;;;;;;54.60;26.10;;;;;;;-0.24;83.66;100041.24;209780;1291;141376;-67
2023/01/20 19:16:47;;;;;;;42.40;22.50;;;;;;;-0.24;84.03;100045.02;209954;1292;151965;-65
2023/01/20 19:21:51;;;;;;;52.10;23.50;;;;;;;-0.25;83.62;100044.65;209000;1298;141765;-69
2023/01/20 19:26:56;;;;;;;50.00;22.00;;;;;;;-0.20;83.70;100044.61;209730;1290;141645;-66
2023/01/20 19:32:03;;;;;;;52.00;22.30;;;;;;;-0.19;83.98;100036.85;207720;1291;140753;-65
2023/01/20 19:37:06;;;;;;;45.90;21.40;;;;;;;-0.22;83.96;100035.43;208978;1292;142420;-64
2023/01/20 19:42:08;;;;;;;39.20;19.40;;;;;;;-0.24;83.70;100037.52;208176;1294;141118;-63
2023/01/20 19:47:11;;;;;;;38.60;19.20;;;;;;;-0.21;83.83;100033.70;208157;1291;141702;-64
2023/01/20 19:52:36;;;;;;;44.70;21.50;;;;;;;-0.23;84.34;100022.55;208697;1285;235140;-63
2023/01/20 19:57:40;;;;;;;42.10;18.50;;;;;;;-0.26;84.14;100017.27;207412;1294;246715;-64
2023/01/20 20:02:44;;;;;;;44.10;20.10;;;;;;;-0.26;84.29;100016.74;207687;1294;140619;-64
2023/01/20 20:07:47;;;;;;;40.60;21.10;;;;;;;-0.25;84.49;100012.10;208414;1294;142245;-62
2023/01/20 20:12:50;;;;;;;46.30;21.80;;;;;;;-0.26;84.51;100012.03;208798;1304;140166;-62
2023/01/20 20:17:57;;;;;;;46.20;19.10;;;;;;;-0.27;84.47;100005.55;208663;1297;141835;-64
2023/01/20 20:23:01;;;;;;;43.70;21.60;;;;;;;-0.27;84.42;99997.09;208804;1303;142457;-69
2023/01/20 20:28:05;;;;;;;37.80;17.40;;;;;;;-0.30;84.38;99997.60;209135;1284;141180;-67
2023/01/20 20:33:09;;;;;;;39.10;18.10;;;;;;;-0.32;84.73;99988.98;208209;1292;688117;-61
2023/01/20 20:38:12;;;;;;;45.30;21.10;;;;;;;-0.28;84.91;99996.92;210357;1301;142495;-65
2023/01/20 20:43:15;;;;;;;40.30;20.40;;;;;;;-0.25;84.88;100003.39;210495;1296;141635;-62
2023/01/20 20:48:19;;;;;;;43.00;17.70;;;;;;;-0.24;84.79;100012.90;210820;1298;139924;-63
2023/01/20 20:53:22;;;;;;;38.60;17.70;;;;;;;-0.17;85.04;100006.77;210323;1286;141487;-62
2023/01/20 20:58:28;;;;;;;45.80;20.40;;;;;;;-0.11;84.75;100011.21;210468;1279;141397;-63
2023/01/20 21:03:33;;;;;;;36.40;17.00;;;;;;;-0.08;85.39;100018.23;210451;1294;140463;-62
2023/01/20 21:08:41;;;;;;;38.80;19.40;;;;;;;-0.05;84.95;100007.56;209625;1293;246254;-65
2023/01/20 21:13:49;;;;;;;35.20;18.30;;;;;;;-0.01;85.26;100013.08;209105;1292;143801;-63
2023/01/20 21:18:59;;;;;;;45.50;20.80;;;;;;;0.00;85.23;100015.42;208036;1291;140509;-63
2023/01/20 21:24:08;;;;;;;39.50;17.70;;;;;;;-0.00;85.38;100016.19;209732;1284;222457;-64
2023/01/20 21:29:12;;;;;;;41.40;21.40;;;;;;;0.04;85.14;100015.73;207798;1285;142320;-63
2023/01/20 21:34:15;;;;;;;38.30;19.60;;;;;;;0.04;85.42;100012.19;209752;1292;141154;-61
2023/01/20 21:39:19;;;;;;;32.00;16.40;;;;;;;0.04;85.40;100002.59;208923;1293;141423;-64
2023/01/20 21:44:31;;;;;;;35.10;15.90;;;;;;;0.09;85.60;99999.86;207520;1292;141938;-62
2023/01/20 21:54:59;;;;;;;25.70;13.80;;;;;;;0.04;85.34;100008.26;208227;1291;149844;-63
2023/01/20 22:00:05;;;;;;;44.70;21.70;;;;;;;0.04;85.87;100016.09;208183;1293;142564;-66
2023/01/20 22:05:10;;;;;;;31.40;13.00;;;;;;;0.04;85.53;100009.43;208727;1292;142099;-61
2023/01/20 22:10:13;;;;;;;31.20;13.50;;;;;;;0.01;85.66;100000.13;208724;1294;140570;-67
2023/01/20 22:15:17;;;;;;;23.90;14.40;;;;;;;0.03;85.44;99987.41;208986;1293;140896;-67
2023/01/20 22:20:20;;;;;;;22.30;11.90;;;;;;;0.02;85.66;99979.75;208806;1292;140349;-66
2023/01/20 22:25:22;;;;;;;21.40;12.30;;;;;;;0.04;85.88;99983.39;209302;1287;139576;-65
2023/01/20 22:30:25;;;;;;;18.90;10.60;;;;;;;0.10;85.70;99983.27;209670;1286;140722;-61
2023/01/20 22:35:28;;;;;;;16.40;9.10;;;;;;;0.12;85.36;99969.45;209809;1295;140492;-63
2023/01/20 22:40:31;;;;;;;15.00;8.60;;;;;;;0.10;85.42;99950.48;209251;1286;161889;-64
2023/01/20 22:45:35;;;;;;;12.30;8.10;;;;;;;0.12;85.22;99946.61;210202;1294;140817;-70
2023/01/20 22:50:38;;;;;;;20.50;10.40;;;;;;;0.08;85.39;99950.67;210499;1286;140501;-64
2023/01/20 22:55:41;;;;;;;17.90;9.60;;;;;;;0.12;85.14;99944.42;209870;1286;140943;-70
2023/01/20 23:01:02;;;;;;;13.00;7.60;;;;;;;0.10;85.04;99929.61;210803;1301;140242;-68
2023/01/20 23:06:06;;;;;;;20.40;9.30;;;;;;;0.08;85.37;99918.04;209653;1295;139579;-63
2023/01/20 23:11:16;;;;;;;12.10;6.70;;;;;;;0.04;85.20;99918.00;209536;1292;141421;-62
2023/01/20 23:16:21;;;;;;;10.80;7.90;;;;;;;0.01;85.12;99920.66;208825;1280;139841;-68
2023/01/20 23:21:25;;;;;;;14.90;7.20;;;;;;;-0.03;85.27;99930.14;209544;1294;140213;-67